Time;durP1;ratioP1;P1;durP2;ratioP2;P2;SDS_P1;SDS_P2;PMS_P1;PMS_P2;Temp;Humidity;BMP_temperature;BMP_pressure;BME280_temperature;BME280_humidity;BME280_pressure;Samples;Min_cycle;Max_cycle;Signal;HPM_P1;HPM_P2
2023/08/29 00:00:43;;;;;;;2.87;2.53;;;15.30;99.90;;;;;;5057907;28;20443;-76
2023/08/29 00:03:31;;;;;;;7.97;2.93;;;15.30;99.90;;;;;;5055890;28;20475;-77
2023/08/29 00:06:16;;;;;;;6.60;2.63;;;15.30;99.90;;;;;;5059208;28;20482;-76
2023/08/29 00:09:03;;;;;;;7.73;2.73;;;15.30;99.90;;;;;;5055765;28;20475;-77
2023/08/29 00:11:49;;;;;;;3.57;2.30;;;15.40;99.90;;;;;;5058186;28;20787;-76
2023/08/29 00:14:36;;;;;;;6.20;2.50;;;15.40;99.90;;;;;;5052990;28;20503;-76
2023/08/29 00:17:22;;;;;;;3.50;2.37;;;15.40;99.90;;;;;;5057110;28;20441;-76
2023/08/29 00:20:10;;;;;;;2.90;2.60;;;15.40;99.90;;;;;;5056658;28;20421;-74
2023/08/29 00:22:56;;;;;;;3.10;2.60;;;15.40;99.90;;;;;;5057067;28;20470;-75
2023/08/29 00:25:41;;;;;;;10.70;3.17;;;15.30;99.90;;;;;;5056748;28;20439;-76
2023/08/29 00:28:27;;;;;;;3.00;2.20;;;15.20;99.90;;;;;;5050487;28;20409;-76
2023/08/29 00:31:14;;;;;;;4.13;2.30;;;15.10;99.90;;;;;;5058390;28;20441;-76
2023/08/29 00:33:59;;;;;;;3.00;2.60;;;15.10;99.90;;;;;;5057611;28;20952;-76
2023/08/29 00:36:45;;;;;;;4.90;3.37;;;14.90;99.90;;;;;;5063760;28;20531;-76
2023/08/29 00:39:31;;;;;;;8.10;2.93;;;14.80;99.90;;;;;;5064860;28;20982;-77
2023/08/29 00:42:17;;;;;;;6.40;3.50;;;14.70;99.90;;;;;;5060648;28;20492;-75
2023/08/29 00:45:03;;;;;;;4.80;2.80;;;14.60;99.90;;;;;;5064376;28;20432;-77
2023/08/29 00:47:50;;;;;;;4.87;3.03;;;14.60;99.90;;;;;;5054522;28;20449;-75
2023/08/29 00:50:38;;;;;;;4.00;2.70;;;14.80;99.90;;;;;;5055381;28;20925;-76
2023/08/29 00:53:25;;;;;;;4.67;3.00;;;14.90;99.90;;;;;;5061293;28;20500;-76
2023/08/29 00:56:12;;;;;;;4.27;2.70;;;15.00;99.90;;;;;;5063211;28;20803;-77
2023/08/29 00:58:58;;;;;;;5.30;2.77;;;15.10;99.90;;;;;;5061603;28;20597;-76
2023/08/29 01:01:47;;;;;;;6.43;2.60;;;15.10;99.90;;;;;;5060719;28;20938;-77
2023/08/29 01:04:34;;;;;;;4.07;3.07;;;15.00;99.90;;;;;;5056148;28;20462;-76
2023/08/29 01:07:19;;;;;;;6.80;3.30;;;14.80;99.90;;;;;;5060197;28;20454;-76
2023/08/29 01:10:06;;;;;;;5.20;3.10;;;14.80;99.90;;;;;;5061628;28;20421;-76
2023/08/29 01:12:58;;;;;;;3.30;3.00;;;14.90;99.90;;;;;;5058056;28;20526;-77
2023/08/29 01:15:49;;;;;;;8.53;3.10;;;14.90;99.90;;;;;;5061025;28;20862;-76
2023/08/29 01:18:38;;;;;;;5.20;3.27;;;15.00;99.90;;;;;;5062064;28;20610;-76
2023/08/29 01:21:32;;;;;;;3.47;2.20;;;14.90;99.90;;;;;;5059190;28;20421;-75
2023/08/29 01:24:24;;;;;;;4.90;2.80;;;14.90;99.90;;;;;;5064659;28;20490;-76
2023/08/29 01:27:12;;;;;;;3.57;2.70;;;14.90;99.90;;;;;;5066873;28;20559;-76
2023/08/29 01:29:58;;;;;;;9.83;2.70;;;14.70;99.90;;;;;;5064583;28;20938;-76
2023/08/29 01:32:45;;;;;;;4.90;2.43;;;14.80;99.90;;;;;;5064930;28;20413;-73
2023/08/29 01:35:31;;;;;;;3.40;2.63;;;14.90;99.90;;;;;;5068498;28;20830;-77
2023/08/29 01:38:17;;;;;;;3.10;2.80;;;14.90;99.90;;;;;;5063003;28;20450;-73
2023/08/29 01:41:03;;;;;;;2.77;2.33;;;14.90;99.90;;;;;;5066150;28;20592;-75
2023/08/29 01:43:50;;;;;;;4.30;2.70;;;14.90;99.90;;;;;;5064832;28;20482;-75
2023/08/29 01:46:36;;;;;;;4.43;2.63;;;14.90;99.90;;;;;;5063480;28;21177;-75
2023/08/29 01:49:22;;;;;;;6.37;3.40;;;15.00;99.90;;;;;;5063902;28;20503;-75
2023/08/29 01:52:08;;;;;;;6.03;3.17;;;15.00;99.90;;;;;;5064048;28;20455;-75
2023/08/29 01:54:53;;;;;;;6.00;2.50;;;15.00;99.90;;;;;;5066969;28;20442;-74
2023/08/29 01:57:40;;;;;;;3.50;2.23;;;14.90;99.90;;;;;;5063789;28;20948;-75
2023/08/29 02:00:28;;;;;;;3.43;2.83;;;14.90;99.90;;;;;;5064241;28;20417;-75
2023/08/29 02:03:13;;;;;;;2.90;2.40;;;14.80;99.90;;;;;;5065404;28;20496;-76
2023/08/29 02:05:59;;;;;;;4.03;2.40;;;14.80;99.90;;;;;;5067487;28;21043;-75
2023/08/29 02:08:45;;;;;;;9.57;2.97;;;14.70;99.90;;;;;;5063873;28;20652;-76
2023/08/29 02:11:30;;;;;;;8.00;3.00;;;14.40;99.90;;;;;;5063314;28;20504;-75
2023/08/29 02:14:16;;;;;;;7.20;2.93;;;14.40;99.90;;;;;;5064262;28;20413;-74
2023/08/29 02:17:04;;;;;;;4.77;2.50;;;14.50;99.90;;;;;;5066489;28;20463;-76
2023/08/29 02:19:50;;;;;;;7.63;3.23;;;14.50;99.90;;;;;;5064081;28;20526;-75
2023/08/29 02:22:36;;;;;;;6.30;2.30;;;14.60;99.90;;;;;;5062855;28;20457;-76
2023/08/29 02:25:21;;;;;;;5.70;2.80;;;14.70;99.90;;;;;;5065562;28;20418;-75
2023/08/29 02:28:07;;;;;;;4.83;2.67;;;14.80;99.90;;;;;;5058660;28;20525;-75
2023/08/29 02:30:52;;;;;;;4.80;3.00;;;14.80;99.90;;;;;;5065921;28;21286;-76
2023/08/29 02:33:40;;;;;;;3.03;2.70;;;14.70;99.90;;;;;;5061802;28;20424;-75
2023/08/29 02:36:25;;;;;;;3.77;2.30;;;14.70;99.90;;;;;;5066834;28;20493;-75
2023/08/29 02:39:11;;;;;;;5.70;3.27;;;14.80;99.90;;;;;;5061948;28;20453;-76
2023/08/29 02:41:57;;;;;;;3.67;2.43;;;14.90;99.90;;;;;;5064649;28;20536;-74
2023/08/29 02:44:43;;;;;;;6.43;3.00;;;14.90;99.90;;;;;;5062679;28;20422;-74
2023/08/29 02:47:29;;;;;;;3.30;2.70;;;14.80;99.90;;;;;;5061861;28;20440;-75
2023/08/29 02:50:16;;;;;;;11.53;2.60;;;14.80;99.90;;;;;;5062239;28;20421;-76
2023/08/29 02:53:01;;;;;;;3.27;2.30;;;14.50;99.90;;;;;;5061680;28;20409;-75
2023/08/29 02:55:49;;;;;;;3.73;2.60;;;14.40;99.90;;;;;;5065882;28;20449;-76
2023/08/29 02:58:35;;;;;;;3.60;3.27;;;14.30;99.90;;;;;;5053442;28;20781;-75
2023/08/29 03:01:21;;;;;;;2.90;2.57;;;14.30;99.90;;;;;;5065245;28;20577;-75
2023/08/29 03:04:06;;;;;;;5.93;2.90;;;14.40;99.90;;;;;;5059222;28;20467;-75
2023/08/29 03:06:53;;;;;;;6.63;3.20;;;14.50;99.90;;;;;;5060938;28;20825;-74
2023/08/29 03:09:39;;;;;;;3.10;2.30;;;14.60;99.90;;;;;;5064785;28;20448;-75
2023/08/29 03:12:25;;;;;;;4.47;3.00;;;14.70;99.90;;;;;;5063697;28;20592;-75
2023/08/29 03:15:11;;;;;;;4.20;2.93;;;14.70;99.90;;;;;;5064262;28;20509;-75
2023/08/29 03:17:59;;;;;;;3.43;2.70;;;14.80;99.90;;;;;;5058745;28;20571;-75
2023/08/29 03:20:45;;;;;;;3.83;3.20;;;14.80;99.90;;;;;;5066857;28;20498;-75
2023/08/29 03:23:32;;;;;;;4.17;2.73;;;14.80;99.90;;;;;;5059771;28;20453;-75
2023/08/29 03:26:17;;;;;;;4.10;2.80;;;14.60;99.90;;;;;;5065741;28;20462;-75
2023/08/29 03:29:03;;;;;;;4.40;2.97;;;14.50;99.90;;;;;;5060452;28;20480;-73
2023/08/29 03:31:49;;;;;;;7.13;4.27;;;14.50;99.90;;;;;;5063692;28;20425;-74
2023/08/29 03:34:34;;;;;;;8.73;2.60;;;14.40;99.90;;;;;;5059668;28;20808;-76
2023/08/29 03:37:20;;;;;;;4.30;3.10;;;14.50;99.90;;;;;;5063807;28;20560;-75
2023/08/29 03:40:10;;;;;;;3.53;2.80;;;14.50;99.90;;;;;;5061053;28;20828;-75
2023/08/29 03:42:55;;;;;;;3.77;3.07;;;14.60;99.90;;;;;;5059716;28;20475;-75
2023/08/29 03:45:41;;;;;;;5.00;2.70;;;14.60;99.90;;;;;;5060867;28;20513;-76
2023/08/29 03:48:27;;;;;;;7.60;2.90;;;14.60;99.90;;;;;;5063077;28;20954;-75
2023/08/29 03:51:13;;;;;;;4.70;3.00;;;14.50;99.90;;;;;;5064345;28;20476;-75
2023/08/29 03:53:59;;;;;;;3.40;2.90;;;14.50;99.90;;;;;;5058285;28;20410;-75
2023/08/29 03:56:47;;;;;;;18.00;3.23;;;14.50;99.90;;;;;;5060228;28;20578;-78
2023/08/29 03:59:33;;;;;;;4.50;3.73;;;14.30;99.90;;;;;;5061810;28;20477;-76
2023/08/29 04:02:20;;;;;;;4.50;3.17;;;14.20;99.90;;;;;;5058934;28;20416;-75
2023/08/29 04:05:12;;;;;;;4.60;2.70;;;14.20;99.90;;;;;;5062272;28;20460;-75
2023/08/29 04:07:57;;;;;;;3.23;2.70;;;14.30;99.90;;;;;;5060074;28;20458;-75
2023/08/29 04:10:43;;;;;;;6.70;3.10;;;14.30;99.90;;;;;;5065256;28;20896;-74
2023/08/29 04:13:30;;;;;;;4.03;2.50;;;14.30;99.90;;;;;;5059017;28;20421;-75
2023/08/29 04:16:16;;;;;;;6.43;3.50;;;14.30;99.90;;;;;;5057660;28;21000;-76
2023/08/29 04:19:01;;;;;;;3.77;3.00;;;14.40;99.90;;;;;;5061087;28;20447;-76
2023/08/29 04:21:48;;;;;;;8.50;2.70;;;14.60;99.90;;;;;;5064650;28;20772;-75
2023/08/29 04:24:33;;;;;;;6.70;2.90;;;14.70;99.90;;;;;;5064987;28;21003;-76
2023/08/29 04:27:20;;;;;;;10.10;2.90;;;14.70;99.90;;;;;;5062617;28;20733;-76
2023/08/29 04:30:08;;;;;;;5.27;3.10;;;14.70;99.90;;;;;;5062479;28;20436;-76
2023/08/29 04:32:54;;;;;;;5.17;3.20;;;14.70;99.90;;;;;;5060685;28;20440;-75
2023/08/29 04:35:40;;;;;;;3.60;2.90;;;14.70;99.90;;;;;;5062976;28;20451;-75
2023/08/29 04:38:25;;;;;;;4.27;2.73;;;14.70;99.90;;;;;;5063354;28;20417;-75
2023/08/29 04:41:11;;;;;;;4.73;2.93;;;14.50;99.90;;;;;;5059327;28;21063;-76
2023/08/29 04:43:57;;;;;;;6.20;3.07;;;14.50;99.90;;;;;;5065862;28;20602;-75
2023/08/29 04:46:44;;;;;;;3.97;2.90;;;14.50;99.90;;;;;;5063223;28;20448;-76
2023/08/29 04:49:30;;;;;;;4.93;3.10;;;14.60;99.90;;;;;;5065809;28;20429;-77
2023/08/29 04:52:15;;;;;;;4.43;2.50;;;14.50;99.90;;;;;;5064783;28;20421;-77
2023/08/29 04:55:01;;;;;;;7.13;2.70;;;14.50;99.90;;;;;;5070684;28;20488;-78
2023/08/29 04:57:47;;;;;;;4.43;2.70;;;14.50;99.90;;;;;;5060651;28;20504;-77
2023/08/29 05:00:32;;;;;;;3.73;2.77;;;14.60;99.90;;;;;;5066177;28;20424;-76
2023/08/29 05:03:19;;;;;;;4.60;3.00;;;14.60;99.90;;;;;;5065722;28;20469;-77
2023/08/29 05:08:38;;;;;;;3.30;2.77;;;14.60;99.90;;;;;;5050477;28;20460;-70
2023/08/29 05:11:24;;;;;;;5.90;2.80;;;14.70;99.90;;;;;;5057427;28;20437;-70
2023/08/29 05:14:10;;;;;;;3.87;3.03;;;14.80;99.90;;;;;;5053887;28;20426;-71
2023/08/29 05:16:56;;;;;;;12.03;3.00;;;14.70;99.90;;;;;;5051911;28;20465;-70
2023/08/29 05:19:44;;;;;;;4.73;3.10;;;14.60;99.90;;;;;;5060244;28;20843;-71
2023/08/29 05:22:29;;;;;;;5.20;2.77;;;14.60;99.90;;;;;;5058849;28;20527;-70
2023/08/29 05:25:15;;;;;;;4.97;2.90;;;14.70;99.90;;;;;;5045084;28;20453;-71
2023/08/29 05:28:01;;;;;;;5.47;3.00;;;14.80;99.90;;;;;;5041324;28;20800;-70
2023/08/29 05:30:48;;;;;;;6.67;2.73;;;14.90;99.90;;;;;;5055996;28;20995;-71
2023/08/29 05:33:34;;;;;;;5.90;2.67;;;15.00;99.90;;;;;;5046588;28;20440;-71
2023/08/29 05:36:21;;;;;;;4.73;2.87;;;15.00;99.90;;;;;;5051276;28;21053;-70
2023/08/29 05:39:07;;;;;;;3.73;3.10;;;15.10;99.90;;;;;;5049668;28;20450;-71
2023/08/29 05:41:52;;;;;;;3.80;3.10;;;15.20;99.90;;;;;;5047181;28;20428;-70
2023/08/29 05:44:39;;;;;;;3.67;2.80;;;15.30;99.90;;;;;;5053486;28;20447;-69
2023/08/29 05:47:24;;;;;;;6.87;3.93;;;15.30;99.90;;;;;;5049416;28;20431;-69
2023/08/29 05:50:10;;;;;;;6.63;3.27;;;15.40;99.90;;;;;;5048718;28;20523;-68
2023/08/29 05:52:57;;;;;;;4.80;2.93;;;15.40;99.90;;;;;;5045364;28;20460;-69
2023/08/29 05:55:42;;;;;;;6.80;3.00;;;15.50;99.90;;;;;;5058775;28;20519;-69
2023/08/29 05:58:28;;;;;;;4.93;2.90;;;15.50;99.90;;;;;;5050031;28;20413;-68
2023/08/29 06:01:14;;;;;;;5.40;2.97;;;15.50;99.90;;;;;;5041172;28;20535;-69
2023/08/29 06:04:00;;;;;;;10.60;2.60;;;15.50;99.90;;;;;;5047931;28;20475;-68
2023/08/29 06:06:45;;;;;;;13.93;3.30;;;15.60;99.90;;;;;;5052863;28;20475;-69
2023/08/29 06:09:33;;;;;;;10.80;2.97;;;15.60;99.90;;;;;;5056823;28;20492;-69
2023/08/29 06:12:19;;;;;;;4.90;3.10;;;15.60;99.90;;;;;;5055513;28;20496;-68
2023/08/29 06:15:05;;;;;;;3.63;2.60;;;15.70;99.90;;;;;;5055122;28;20414;-68
2023/08/29 06:17:51;;;;;;;5.30;3.07;;;15.70;99.90;;;;;;5047575;28;20449;-68
2023/08/29 06:20:36;;;;;;;3.00;2.57;;;15.80;99.90;;;;;;5056272;28;20784;-68
2023/08/29 06:23:22;;;;;;;3.80;2.57;;;15.80;99.90;;;;;;5052774;28;20439;-69
2023/08/29 06:26:09;;;;;;;10.30;2.90;;;15.80;99.90;;;;;;5053696;28;20512;-69
2023/08/29 06:28:55;;;;;;;3.47;2.40;;;15.90;99.90;;;;;;5048799;28;20522;-69
2023/08/29 06:31:41;;;;;;;10.40;3.00;;;15.90;99.90;;;;;;5054386;28;20451;-69
2023/08/29 06:34:27;;;;;;;5.30;3.00;;;15.90;99.90;;;;;;5050591;28;20437;-69
2023/08/29 06:37:13;;;;;;;15.07;2.90;;;16.00;99.90;;;;;;5051251;28;20446;-69
2023/08/29 06:39:59;;;;;;;8.33;2.30;;;16.00;99.90;;;;;;5051354;28;20447;-68
2023/08/29 06:42:46;;;;;;;3.80;2.80;;;16.10;99.90;;;;;;5056086;28;20418;-69
2023/08/29 06:45:32;;;;;;;3.00;2.70;;;16.00;99.90;;;;;;5048802;28;20529;-68
2023/08/29 06:48:18;;;;;;;10.17;2.70;;;16.00;99.90;;;;;;5048391;28;20438;-68
2023/08/29 06:51:03;;;;;;;3.00;2.63;;;16.00;99.90;;;;;;5051432;28;20448;-68
2023/08/29 06:53:49;;;;;;;3.53;2.90;;;16.10;99.90;;;;;;5045771;28;20597;-68
2023/08/29 06:56:34;;;;;;;4.50;2.50;;;16.20;99.90;;;;;;5048404;28;20438;-69
2023/08/29 06:59:21;;;;;;;5.90;2.90;;;16.20;99.90;;;;;;5046899;28;20500;-68
2023/08/29 07:02:07;;;;;;;5.10;2.87;;;16.30;99.90;;;;;;5045981;28;20442;-68
2023/08/29 07:04:53;;;;;;;5.37;3.30;;;16.30;99.90;;;;;;5045223;28;20444;-69
2023/08/29 07:07:40;;;;;;;3.47;2.90;;;16.40;99.90;;;;;;5041613;28;20503;-68
2023/08/29 07:10:25;;;;;;;4.87;2.90;;;16.40;99.90;;;;;;5044774;28;20426;-69
2023/08/29 07:13:11;;;;;;;4.93;3.00;;;16.40;99.90;;;;;;5047146;28;20444;-69
2023/08/29 07:15:58;;;;;;;4.60;2.90;;;16.40;99.90;;;;;;5050851;28;20416;-68
2023/08/29 07:18:44;;;;;;;4.20;3.60;;;16.40;99.90;;;;;;5043657;28;20552;-68
2023/08/29 07:21:29;;;;;;;6.20;2.90;;;16.30;99.90;;;;;;5049986;28;20998;-68
2023/08/29 07:24:16;;;;;;;5.07;3.10;;;16.40;99.90;;;;;;5053931;28;20489;-69
2023/08/29 07:27:04;;;;;;;5.37;3.03;;;16.40;99.90;;;;;;5045074;28;20926;-68
2023/08/29 07:29:49;;;;;;;6.57;3.60;;;16.40;99.90;;;;;;5044285;28;20454;-69
2023/08/29 07:32:37;;;;;;;3.33;2.70;;;16.50;99.90;;;;;;5044110;28;20482;-71
2023/08/29 07:35:22;;;;;;;3.10;2.60;;;16.50;99.90;;;;;;5053089;28;20907;-71
2023/08/29 07:38:08;;;;;;;3.83;3.07;;;16.50;99.90;;;;;;5044209;28;20833;-71
2023/08/29 07:40:54;;;;;;;5.37;3.10;;;16.60;99.90;;;;;;5046981;28;20454;-68
2023/08/29 07:43:39;;;;;;;4.27;3.30;;;16.70;99.90;;;;;;5043406;28;20445;-69
2023/08/29 07:46:25;;;;;;;3.87;2.80;;;16.70;99.90;;;;;;5043339;28;20467;-69
2023/08/29 07:49:14;;;;;;;4.63;2.73;;;16.70;99.90;;;;;;5044995;28;21307;-68
2023/08/29 07:52:00;;;;;;;5.40;3.23;;;16.70;99.90;;;;;;5052622;28;20459;-69
2023/08/29 07:54:46;;;;;;;4.13;2.93;;;16.70;99.90;;;;;;5053100;28;20472;-69
2023/08/29 07:57:32;;;;;;;6.27;2.87;;;16.80;99.90;;;;;;5041482;28;20434;-68
2023/08/29 08:00:18;;;;;;;11.50;3.20;;;16.80;99.90;;;;;;5039385;28;20438;-68
2023/08/29 08:03:04;;;;;;;3.90;2.50;;;16.80;99.90;;;;;;5040346;28;20967;-69
2023/08/29 08:05:51;;;;;;;5.00;2.80;;;16.90;99.90;;;;;;5050950;28;20463;-69
2023/08/29 08:08:37;;;;;;;6.00;3.17;;;16.90;99.90;;;;;;5047200;28;20450;-68
2023/08/29 08:11:23;;;;;;;5.17;3.13;;;16.80;99.90;;;;;;5053591;28;20486;-69
2023/08/29 08:14:08;;;;;;;4.13;2.70;;;16.80;99.90;;;;;;5046398;28;20453;-69
2023/08/29 08:16:53;;;;;;;5.27;2.60;;;16.90;99.90;;;;;;5041983;28;20437;-69
2023/08/29 08:19:39;;;;;;;4.93;2.63;;;16.90;99.90;;;;;;5048067;28;20453;-68
2023/08/29 08:22:26;;;;;;;3.53;2.47;;;17.00;99.90;;;;;;5043666;28;20443;-69
2023/08/29 08:25:12;;;;;;;3.70;2.60;;;17.10;99.90;;;;;;5050172;28;20443;-69
2023/08/29 08:27:58;;;;;;;6.33;2.23;;;17.20;99.90;;;;;;5051585;28;20433;-69
2023/08/29 08:30:43;;;;;;;9.87;2.57;;;17.30;99.90;;;;;;5050561;28;20414;-69
2023/08/29 08:33:29;;;;;;;3.10;2.20;;;17.30;99.90;;;;;;5050392;28;20492;-69
2023/08/29 08:36:15;;;;;;;4.00;2.87;;;17.30;99.90;;;;;;5051871;28;20790;-69
2023/08/29 08:39:03;;;;;;;4.27;2.10;;;17.40;99.90;;;;;;5047894;28;20423;-68
2023/08/29 08:41:50;;;;;;;4.07;2.50;;;17.40;99.90;;;;;;5051638;28;20453;-68
2023/08/29 08:44:36;;;;;;;3.07;2.57;;;17.40;99.90;;;;;;5058457;28;20451;-69
2023/08/29 08:47:22;;;;;;;4.07;2.33;;;17.50;99.90;;;;;;5051726;28;20474;-69
2023/08/29 08:50:09;;;;;;;5.47;2.63;;;17.50;99.90;;;;;;5056444;28;20967;-69
2023/08/29 08:52:56;;;;;;;4.17;3.30;;;17.40;99.90;;;;;;5049561;28;21001;-68
2023/08/29 08:55:43;;;;;;;4.97;2.90;;;17.40;99.90;;;;;;5049942;28;20435;-68
2023/08/29 08:58:28;;;;;;;5.00;3.10;;;17.40;99.90;;;;;;5054766;28;22982;-69
2023/08/29 09:01:14;;;;;;;7.77;3.57;;;17.50;99.90;;;;;;5057465;28;20443;-69
2023/08/29 09:04:00;;;;;;;3.50;2.43;;;17.60;99.90;;;;;;5047485;28;20952;-69
2023/08/29 09:06:46;;;;;;;4.63;2.93;;;17.60;99.90;;;;;;5056983;28;20474;-69
2023/08/29 09:09:32;;;;;;;7.13;3.77;;;17.60;99.90;;;;;;5046382;28;20411;-69
2023/08/29 09:12:19;;;;;;;5.77;3.50;;;17.60;99.90;;;;;;5053438;28;20552;-69
2023/08/29 09:15:05;;;;;;;12.60;4.13;;;17.60;99.90;;;;;;5048201;28;20555;-68
2023/08/29 09:17:53;;;;;;;4.00;3.47;;;17.50;99.90;;;;;;5054865;28;20542;-69
2023/08/29 09:20:42;;;;;;;7.33;3.37;;;17.50;99.90;;;;;;5057857;28;20417;-68
2023/08/29 09:23:29;;;;;;;5.87;3.43;;;17.60;99.90;;;;;;5040427;28;20423;-68
2023/08/29 09:26:15;;;;;;;5.13;3.43;;;17.70;99.90;;;;;;5045936;28;20674;-68
2023/08/29 09:29:17;;;;;;;6.90;3.70;;;17.70;99.90;;;;;;5049356;28;20814;-69
2023/08/29 09:32:13;;;;;;;6.33;4.03;;;17.80;99.90;;;;;;5050835;28;20524;-69
2023/08/29 09:34:59;;;;;;;5.00;3.20;;;17.90;99.90;;;;;;5051311;28;20778;-68
2023/08/29 09:37:50;;;;;;;8.17;3.53;;;17.90;99.90;;;;;;5053538;28;21566;-69
2023/08/29 09:40:46;;;;;;;5.43;4.30;;;17.80;99.90;;;;;;5053846;28;20512;-68
2023/08/29 09:43:32;;;;;;;10.33;4.50;;;17.80;99.90;;;;;;5050647;28;20418;-68
2023/08/29 09:46:30;;;;;;;5.10;4.00;;;17.80;99.90;;;;;;5056630;28;20489;-69
2023/08/29 09:49:16;;;;;;;5.87;4.13;;;17.80;99.90;;;;;;5059389;28;20501;-69
2023/08/29 09:52:02;;;;;;;5.57;3.93;;;17.80;99.90;;;;;;5048526;28;20487;-69
2023/08/29 09:54:50;;;;;;;4.80;3.40;;;17.90;99.90;;;;;;5058186;28;21038;-68
2023/08/29 09:57:38;;;;;;;9.90;3.53;;;18.00;99.90;;;;;;5053751;28;20476;-69
2023/08/29 10:00:24;;;;;;;6.00;2.90;;;18.10;99.90;;;;;;5035379;28;20449;-69
2023/08/29 10:03:12;;;;;;;5.20;2.93;;;18.20;99.90;;;;;;5042555;28;21063;-69
2023/08/29 10:05:59;;;;;;;11.43;3.80;;;18.10;99.90;;;;;;5051589;28;20598;-69
2023/08/29 10:08:47;;;;;;;4.90;2.77;;;18.00;99.90;;;;;;5045631;28;20445;-69
2023/08/29 10:11:34;;;;;;;6.87;3.50;;;18.00;99.90;;;;;;5042309;28;20457;-68
2023/08/29 10:14:20;;;;;;;3.87;2.60;;;18.20;99.90;;;;;;5037722;28;20584;-68
2023/08/29 10:17:07;;;;;;;5.00;3.20;;;18.30;99.90;;;;;;5046831;28;20521;-68
2023/08/29 10:19:56;;;;;;;5.03;3.50;;;18.30;99.90;;;;;;5053111;28;20464;-69
2023/08/29 10:22:45;;;;;;;5.30;2.87;;;18.30;99.90;;;;;;5038864;28;20783;-69
2023/08/29 10:25:32;;;;;;;5.43;2.90;;;18.30;99.90;;;;;;5041671;28;20464;-69
2023/08/29 10:28:19;;;;;;;6.87;3.50;;;18.30;99.90;;;;;;5035715;28;20467;-69
2023/08/29 10:31:06;;;;;;;5.10;3.10;;;18.30;99.90;;;;;;5054749;28;20440;-69
2023/08/29 10:33:56;;;;;;;4.60;3.13;;;18.40;99.90;;;;;;5047050;28;20421;-69
2023/08/29 10:36:46;;;;;;;4.80;2.87;;;18.50;99.90;;;;;;5054705;28;20987;-69
2023/08/29 10:39:32;;;;;;;4.30;3.03;;;18.30;99.90;;;;;;5043416;28;20415;-69
2023/08/29 10:42:18;;;;;;;6.73;4.53;;;18.20;99.90;;;;;;5038655;28;20427;-69
2023/08/29 10:45:05;;;;;;;4.57;2.43;;;18.10;99.90;;;;;;5048575;28;20473;-69
2023/08/29 10:47:51;;;;;;;3.10;2.47;;;18.10;99.90;;;;;;5038991;28;20499;-69
2023/08/29 10:50:38;;;;;;;4.90;2.80;;;18.20;99.90;;;;;;5047380;28;20407;-69
2023/08/29 10:53:36;;;;;;;5.17;2.90;;;18.20;99.90;;;;;;5052321;28;20434;-69
2023/08/29 10:56:26;;;;;;;5.80;2.77;;;18.20;99.90;;;;;;5046474;28;20474;-69
2023/08/29 10:59:31;;;;;;;3.97;2.87;;;18.20;99.90;;;;;;5041584;28;20424;-69
2023/08/29 11:02:25;;;;;;;5.17;3.20;;;18.30;99.90;;;;;;5042446;28;20534;-69
2023/08/29 11:05:15;;;;;;;5.43;2.73;;;18.20;99.90;;;;;;5046739;28;20792;-69
2023/08/29 11:08:21;;;;;;;5.00;2.53;;;18.20;99.90;;;;;;5042560;28;20462;-69
2023/08/29 11:11:25;;;;;;;7.40;2.50;;;18.20;99.90;;;;;;5042933;28;20681;-69
2023/08/29 11:14:11;;;;;;;6.40;2.90;;;18.20;99.90;;;;;;5043251;28;20465;-69
2023/08/29 11:17:11;;;;;;;4.33;2.20;;;18.30;99.90;;;;;;5045554;28;20482;-69
2023/08/29 11:19:58;;;;;;;7.23;2.50;;;18.40;99.90;;;;;;5044804;28;20798;-69
2023/08/29 11:22:49;;;;;;;6.77;2.30;;;18.60;99.90;;;;;;5044001;28;20583;-69
2023/08/29 11:25:37;;;;;;;5.60;2.07;;;18.70;99.90;;;;;;5041255;28;20608;-69
2023/08/29 11:28:25;;;;;;;4.27;2.10;;;18.80;99.90;;;;;;5040458;28;21060;-69
2023/08/29 11:31:10;;;;;;;2.60;1.87;;;18.90;99.90;;;;;;5035264;28;20438;-69
2023/08/29 11:33:56;;;;;;;7.97;2.10;;;18.90;99.90;;;;;;5047587;28;20447;-69
2023/08/29 11:36:44;;;;;;;6.30;1.60;;;18.70;99.90;;;;;;5041563;28;20461;-68
2023/08/29 11:39:30;;;;;;;3.13;1.50;;;18.70;99.90;;;;;;5039675;28;20464;-69
2023/08/29 11:42:20;;;;;;;3.33;1.60;;;18.80;99.90;;;;;;5042317;28;20523;-69
2023/08/29 11:45:08;;;;;;;6.93;2.10;;;18.80;99.90;;;;;;5039910;28;20450;-68
2023/08/29 11:47:54;;;;;;;5.63;2.43;;;18.80;99.90;;;;;;5037982;28;20440;-69
2023/08/29 11:50:40;;;;;;;5.13;1.77;;;18.90;99.90;;;;;;5045245;28;20480;-69
2023/08/29 11:53:29;;;;;;;4.90;1.70;;;19.00;99.90;;;;;;5039926;28;20445;-69
2023/08/29 11:56:15;;;;;;;2.93;1.87;;;19.00;99.90;;;;;;5037750;28;20443;-69
2023/08/29 11:59:01;;;;;;;4.90;1.87;;;18.90;99.90;;;;;;5046095;28;20467;-68
2023/08/29 12:01:48;;;;;;;6.47;1.70;;;18.90;99.90;;;;;;5036540;28;20478;-69
2023/08/29 12:04:34;;;;;;;5.67;1.63;;;18.90;99.90;;;;;;5038648;28;20450;-69
2023/08/29 12:07:19;;;;;;;3.23;1.60;;;18.90;99.90;;;;;;5044050;28;21117;-69
2023/08/29 12:10:10;;;;;;;4.27;2.20;;;18.90;99.90;;;;;;5045968;28;21479;-69
2023/08/29 12:12:55;;;;;;;3.67;1.60;;;18.80;99.90;;;;;;5040307;28;20435;-69
2023/08/29 12:15:41;;;;;;;8.53;2.30;;;18.70;99.90;;;;;;5047235;28;20413;-69
2023/08/29 12:18:28;;;;;;;5.47;1.87;;;18.60;99.90;;;;;;5053670;28;20496;-69
2023/08/29 12:21:16;;;;;;;6.73;1.90;;;18.40;99.90;;;;;;5043232;28;20449;-69
2023/08/29 12:24:10;;;;;;;2.40;1.33;;;18.40;99.90;;;;;;5043950;28;20795;-69
2023/08/29 12:26:56;;;;;;;3.60;1.43;;;18.30;99.90;;;;;;5039764;28;20501;-69
2023/08/29 12:29:42;;;;;;;5.83;1.43;;;18.30;99.90;;;;;;5037304;28;20494;-69
2023/08/29 12:32:28;;;;;;;3.83;1.70;;;18.30;99.90;;;;;;5033942;28;20469;-69
2023/08/29 12:35:17;;;;;;;2.40;1.20;;;18.30;99.90;;;;;;5039231;28;20568;-69
2023/08/29 12:38:03;;;;;;;4.07;1.67;;;18.20;99.90;;;;;;5049244;28;20526;-69
2023/08/29 12:40:48;;;;;;;2.50;1.37;;;18.20;99.90;;;;;;5043438;28;20431;-69
2023/08/29 12:43:34;;;;;;;4.70;1.60;;;18.30;99.90;;;;;;5034879;28;20436;-69
2023/08/29 12:46:19;;;;;;;3.43;1.30;;;18.30;99.90;;;;;;5034743;28;20907;-69
2023/08/29 12:49:05;;;;;;;3.77;1.30;;;18.30;99.90;;;;;;5038750;28;20415;-69
2023/08/29 12:51:52;;;;;;;5.60;1.70;;;18.20;99.90;;;;;;5044531;28;20422;-69
2023/08/29 12:54:41;;;;;;;6.17;1.60;;;18.10;99.90;;;;;;5042896;28;20415;-69
2023/08/29 12:57:26;;;;;;;3.10;1.20;;;18.20;99.90;;;;;;5044638;28;20466;-69
2023/08/29 13:00:14;;;;;;;3.27;1.60;;;18.20;99.90;;;;;;5041293;28;20577;-70
2023/08/29 13:03:00;;;;;;;6.33;1.30;;;18.30;99.90;;;;;;5041730;28;20416;-69
2023/08/29 13:05:46;;;;;;;3.00;1.50;;;18.40;99.90;;;;;;5049782;28;20990;-69
2023/08/29 13:08:32;;;;;;;2.93;1.53;;;18.30;99.90;;;;;;5044746;28;22936;-69
2023/08/29 13:11:18;;;;;;;6.23;2.07;;;18.40;99.90;;;;;;5045979;28;20444;-69
2023/08/29 13:14:04;;;;;;;3.10;1.50;;;18.40;99.90;;;;;;5046560;28;20530;-69
2023/08/29 13:16:50;;;;;;;5.87;1.70;;;18.50;99.90;;;;;;5049352;28;20435;-69
2023/08/29 13:19:36;;;;;;;2.43;1.57;;;18.50;99.90;;;;;;5045995;28;20424;-69
2023/08/29 13:22:22;;;;;;;5.53;1.53;;;18.50;99.90;;;;;;5047440;28;20410;-69
2023/08/29 13:25:10;;;;;;;5.20;1.43;;;18.50;99.90;;;;;;5047932;28;20427;-69
2023/08/29 13:27:57;;;;;;;3.00;2.10;;;18.50;99.90;;;;;;5048176;28;20425;-69
2023/08/29 13:30:43;;;;;;;3.23;1.73;;;18.50;99.90;;;;;;5038710;28;20419;-69
2023/08/29 13:33:28;;;;;;;3.77;1.53;;;18.60;99.90;;;;;;5046470;28;20427;-69
2023/08/29 13:36:14;;;;;;;9.20;2.13;;;18.60;99.90;;;;;;5046209;28;20965;-69
2023/08/29 13:39:00;;;;;;;1.90;1.30;;;18.60;99.90;;;;;;5048409;28;20446;-69
2023/08/29 13:41:47;;;;;;;3.20;1.33;;;18.60;99.90;;;;;;5042681;28;20412;-69
2023/08/29 13:44:32;;;;;;;2.87;1.70;;;18.70;99.90;;;;;;5043440;28;20453;-69
2023/08/29 13:47:18;;;;;;;2.97;2.13;;;18.70;99.90;;;;;;5044659;28;20487;-69
2023/08/29 13:50:04;;;;;;;11.07;3.00;;;18.70;99.90;;;;;;5048499;28;20451;-69
2023/08/29 13:52:49;;;;;;;3.60;2.00;;;18.70;99.90;;;;;;5048314;28;21018;-69
2023/08/29 13:55:35;;;;;;;5.77;2.60;;;18.60;99.90;;;;;;5042038;28;20441;-69
2023/08/29 13:58:23;;;;;;;3.97;2.60;;;18.50;99.90;;;;;;5044538;28;20434;-69
2023/08/29 14:01:09;;;;;;;3.07;2.10;;;18.50;99.90;;;;;;5042560;28;20440;-69
2023/08/29 14:03:54;;;;;;;5.00;2.13;;;18.50;99.90;;;;;;5040266;28;20541;-69
2023/08/29 14:06:40;;;;;;;4.23;1.80;;;18.60;99.90;;;;;;5051282;28;21102;-69
2023/08/29 14:09:26;;;;;;;3.87;1.80;;;18.60;99.90;;;;;;5048041;28;20941;-69
2023/08/29 14:12:11;;;;;;;4.50;1.93;;;18.60;99.90;;;;;;5047463;28;20424;-69
2023/08/29 14:14:59;;;;;;;5.20;1.90;;;18.70;99.90;;;;;;5042363;28;20919;-69
2023/08/29 14:17:44;;;;;;;4.93;1.80;;;18.50;99.90;;;;;;5053909;28;20532;-69
2023/08/29 14:20:30;;;;;;;6.53;2.43;;;18.50;99.90;;;;;;5047686;28;21066;-69
2023/08/29 14:23:16;;;;;;;5.50;1.93;;;18.40;99.90;;;;;;5051243;28;20962;-70
2023/08/29 14:26:01;;;;;;;2.27;1.40;;;18.40;99.90;;;;;;5045505;28;20440;-69
2023/08/29 14:28:47;;;;;;;2.80;1.60;;;18.40;99.90;;;;;;5042449;28;20446;-69